createdAt,value
2018-11-22T05:47:29.269Z,1.00
2018-11-22T05:49:59.843Z,1.00
2018-11-22T05:52:26.671Z,1.10
2018-11-22T05:54:55.535Z,1.20
2018-11-22T06:00:20.947Z,1.50
2018-11-22T06:02:49.827Z,1.50
2018-11-22T06:05:38.742Z,1.60
2018-11-22T06:08:07.673Z,1.70
2018-11-22T06:10:52.105Z,1.80
2018-11-22T06:24:54.490Z,1.90
2018-11-22T06:27:27.375Z,1.90
2018-11-22T06:29:58.130Z,1.90
2018-11-22T06:53:30.106Z,1.50
2018-11-22T06:55:09.009Z,1.50
2018-11-22T06:55:59.080Z,1.50
2018-11-22T06:58:31.199Z,1.60
2018-11-22T07:01:12.966Z,1.60
2018-11-22T07:03:55.608Z,1.70
2018-11-22T07:06:49.877Z,1.70
2018-11-22T07:09:14.740Z,1.80
2018-11-22T07:11:46.003Z,1.80
2018-11-22T07:48:54.885Z,2.40
2018-11-22T07:52:05.159Z,2.50
2018-11-22T08:02:12.902Z,2.60
2018-11-22T08:05:07.489Z,2.50
2018-11-22T08:11:29.900Z,2.50
2018-11-22T08:21:13.668Z,2.60
2018-11-22T08:37:09.652Z,2.50
2018-11-22T08:38:54.276Z,2.70
2018-11-22T08:45:02.320Z,2.70
2018-11-22T08:48:01.355Z,2.70
2018-11-22T08:56:55.433Z,3.00
2018-11-22T08:59:24.158Z,3.20
2018-11-22T09:05:37.872Z,3.20
2018-11-22T09:08:28.787Z,3.20
2018-11-22T09:13:47.881Z,3.20
2018-11-22T09:16:39.285Z,3.30
2018-11-22T09:19:05.367Z,3.30
2018-11-22T09:21:34.186Z,3.40
2018-11-22T09:24:06.183Z,3.40
2018-11-22T09:27:13.060Z,3.50
2018-11-22T09:29:49.623Z,3.50
2018-11-22T09:32:18.305Z,3.50
2018-11-22T09:34:46.934Z,3.50
2018-11-22T09:38:09.778Z,3.60
2018-11-22T09:46:49.866Z,3.70
2018-11-22T09:52:36.135Z,3.90
2018-11-22T09:54:35.632Z,3.80
2018-11-22T09:57:04.734Z,3.80
2018-11-22T09:59:46.672Z,3.90
2018-11-22T10:02:26.850Z,3.90
2018-11-22T10:05:03.822Z,4.00
2018-11-22T10:07:36.487Z,4.10
2018-11-22T10:14:48.442Z,4.20
2018-11-22T10:15:07.411Z,4.30
2018-11-22T10:21:24.427Z,4.50
2018-11-22T10:23:53.154Z,4.60
2018-11-22T10:26:21.731Z,4.60
2018-11-22T10:28:51.521Z,4.70
2018-11-22T10:35:24.153Z,4.80
2018-11-22T10:38:09.712Z,4.90
2018-11-22T10:40:38.959Z,4.90
2018-11-22T10:43:10.634Z,5.00
2018-11-22T10:45:42.329Z,5.00
2018-11-22T10:48:35.146Z,5.00
2018-11-22T10:51:03.808Z,5.10
2018-11-22T10:55:09.901Z,5.20
2018-11-22T10:57:12.428Z,5.20
2018-11-22T11:00:38.616Z,5.30
2018-11-22T11:03:47.724Z,5.30
2018-11-22T11:09:11.731Z,5.40
2018-11-22T11:11:46.141Z,5.40
2018-11-22T11:21:29.454Z,5.60
2018-11-22T11:24:21.319Z,5.60
2018-11-22T11:26:49.188Z,5.50
2018-11-22T11:29:19.981Z,5.70
2018-11-22T11:32:43.528Z,5.80
2018-11-22T11:35:17.182Z,5.90
2018-11-22T11:37:48.436Z,5.90
2018-11-22T11:43:56.605Z,6.00
2018-11-22T11:46:42.035Z,6.10
2018-11-22T11:52:47.930Z,6.30
2018-11-22T12:06:45.617Z,6.40
2018-11-22T12:09:14.242Z,6.50
2018-11-22T12:11:45.238Z,6.60
2018-11-22T12:14:33.119Z,6.60
2018-11-22T12:17:02.812Z,6.60
2018-11-22T12:19:44.443Z,6.70
2018-11-22T12:22:05.857Z,6.80
2018-11-22T12:24:37.327Z,6.90
2018-11-22T12:27:09.837Z,6.90
2018-11-22T12:33:33.271Z,7.00
2018-11-22T12:37:27.359Z,7.10
2018-11-22T12:50:29.913Z,7.40
2018-11-22T12:52:58.692Z,7.40
2018-11-22T12:55:27.951Z,7.30
2018-11-22T12:57:56.607Z,7.30
2018-11-22T13:00:35.065Z,7.30
2018-11-22T13:03:32.012Z,7.40
2018-11-22T13:06:09.379Z,7.40
2018-11-22T13:08:38.143Z,7.50
2018-11-22T13:11:35.169Z,7.60
2018-11-22T13:14:03.660Z,7.50
2018-11-22T13:16:32.749Z,7.50
2018-11-22T13:19:20.816Z,7.60
2018-11-22T13:21:49.926Z,7.60
2018-11-22T13:24:21.506Z,7.70
2018-11-22T13:26:50.181Z,7.80
2018-11-22T13:29:18.283Z,7.90
2018-11-22T13:31:49.542Z,7.90
2018-11-22T13:34:28.337Z,7.80
2018-11-22T13:41:39.457Z,8.00
2018-11-22T13:43:21.165Z,8.00
2018-11-22T13:43:25.848Z,7.90
2018-11-22T13:49:02.939Z,7.90
2018-11-22T13:51:31.724Z,8.00
2018-11-22T13:54:00.463Z,8.00
2018-11-22T13:56:33.397Z,8.10
2018-11-22T13:59:01.380Z,8.10
2018-11-22T14:01:32.806Z,8.10
2018-11-22T14:04:07.682Z,8.10
2018-11-22T14:06:56.554Z,8.00
2018-11-22T14:09:26.823Z,8.10
2018-11-22T14:12:07.822Z,8.10
2018-11-22T14:14:34.669Z,8.10
2018-11-22T14:17:03.479Z,8.10
2018-11-22T14:19:32.280Z,8.20
2018-11-22T14:22:00.964Z,8.20
2018-11-22T14:24:29.648Z,8.20
2018-11-22T14:27:10.468Z,8.20
2018-11-22T14:33:55.647Z,8.20
2018-11-22T14:36:27.842Z,8.10
2018-11-22T14:38:56.547Z,8.10
2018-11-22T14:41:25.160Z,8.10
2018-11-22T14:50:36.541Z,8.10
2018-11-22T14:53:29.062Z,8.10
2018-11-22T14:56:53.110Z,8.10
2018-11-22T15:02:33.909Z,8.00
2018-11-22T15:12:44.677Z,7.90
2018-11-22T15:19:23.513Z,7.70
2018-11-22T15:23:02.042Z,7.70
2018-11-22T15:26:32.807Z,7.60
2018-11-22T15:29:02.342Z,7.40
2018-11-22T15:32:09.879Z,7.40
2018-11-22T15:38:43.134Z,7.10
2018-11-22T15:53:25.273Z,6.50
2018-11-22T15:55:29.359Z,6.40
2018-11-22T15:58:29.127Z,6.30
2018-11-22T16:01:09.632Z,6.20
2018-11-22T16:04:25.028Z,6.10
2018-11-22T16:06:57.905Z,6.00
2018-11-22T16:09:33.980Z,5.80
2018-11-22T16:12:02.828Z,5.80
2018-11-22T16:14:40.038Z,5.70
2018-11-22T16:19:52.042Z,5.60
2018-11-22T16:20:31.145Z,5.50
2018-11-22T16:23:20.369Z,5.50
2018-11-22T16:30:12.379Z,5.30
2018-11-22T16:33:27.381Z,5.20
2018-11-22T16:35:56.088Z,5.20
2018-11-22T16:38:37.210Z,5.10
2018-11-22T16:44:04.582Z,4.90
2018-11-22T16:46:27.171Z,4.80
2018-11-22T16:56:51.307Z,4.80
2018-11-22T16:59:43.158Z,4.70
2018-11-22T17:02:43.767Z,4.60
2018-11-22T17:05:54.402Z,4.60
2018-11-22T17:15:21.404Z,4.70
2018-11-22T17:27:56.388Z,4.50
2018-11-22T17:30:27.927Z,4.50
2018-11-22T17:33:42.987Z,4.50
2018-11-22T17:37:10.006Z,4.50
2018-11-22T17:39:41.285Z,4.50
2018-11-22T18:11:00.848Z,4.40
2018-11-22T18:15:11.947Z,4.40
2018-11-22T18:17:20.764Z,4.40
2018-11-22T18:21:14.130Z,4.30
2018-11-22T18:26:01.332Z,4.30
2018-11-22T18:26:35.420Z,4.30
2018-11-22T18:29:34.955Z,4.20
2018-11-22T18:32:27.213Z,4.10
2018-11-22T18:36:16.449Z,4.10
2018-11-22T18:39:53.097Z,4.10
2018-11-22T18:45:51.779Z,4.30
2018-11-22T18:48:39.984Z,4.30
2018-11-22T18:51:11.834Z,4.30
2018-11-22T18:54:25.201Z,4.30
2018-11-22T18:57:28.882Z,4.30
2018-11-22T18:59:57.681Z,4.20
2018-11-22T19:02:26.548Z,4.20
2018-11-22T19:04:55.160Z,4.30
2018-11-22T19:07:23.980Z,4.20
2018-11-22T19:10:38.339Z,4.20
2018-11-22T19:16:05.972Z,4.20
2018-11-22T19:19:37.604Z,4.20
2018-11-22T19:22:15.478Z,4.20
2018-11-22T19:24:47.067Z,4.20
2018-11-22T19:27:16.221Z,4.20
2018-11-22T19:29:47.307Z,4.30
2018-11-22T19:32:33.625Z,4.30
2018-11-22T19:35:09.527Z,4.30
2018-11-22T19:58:42.603Z,3.40
2018-11-22T20:01:07.693Z,3.30
2018-11-22T20:03:34.435Z,3.30
2018-11-22T20:06:03.662Z,3.30
2018-11-22T20:08:35.025Z,3.40
2018-11-22T20:11:03.878Z,3.50
2018-11-22T20:14:17.823Z,3.50
2018-11-22T20:16:47.163Z,3.60
2018-11-22T20:20:00.612Z,3.60
2018-11-22T20:29:24.822Z,3.60
2018-11-22T20:32:11.519Z,3.50
2018-11-22T20:35:14.402Z,3.50
2018-11-22T20:37:58.529Z,3.50
2018-11-22T20:40:28.017Z,3.50
2018-11-22T20:43:16.567Z,3.40
2018-11-22T20:45:45.297Z,3.30
2018-11-22T20:48:33.398Z,3.20
2018-11-22T20:51:21.752Z,3.20
2018-11-22T20:54:10.823Z,3.10
2018-11-22T20:57:02.230Z,3.00
2018-11-22T20:59:31.953Z,3.00
2018-11-22T21:02:29.441Z,3.00
2018-11-22T21:05:14.681Z,3.00
2018-11-22T21:07:47.075Z,2.90
2018-11-22T21:14:22.408Z,2.70
2018-11-22T21:16:30.801Z,2.60
2018-11-22T21:19:00.297Z,2.60
2018-11-22T21:22:48.810Z,2.50
2018-11-22T21:25:44.365Z,2.50
2018-11-22T21:28:45.958Z,2.40
2018-11-22T21:34:19.025Z,2.30
2018-11-22T21:36:48.094Z,2.30
2018-11-22T21:39:16.619Z,2.30
2018-11-22T21:42:03.159Z,2.30
2018-11-22T21:44:21.359Z,2.30
2018-11-22T21:47:09.765Z,2.20
2018-11-22T21:49:50.328Z,2.20
2018-11-22T21:52:37.111Z,2.10
2018-11-22T21:55:47.077Z,2.10
2018-11-22T22:02:52.771Z,2.00
2018-11-22T22:04:34.065Z,2.00
2018-11-22T22:07:08.351Z,2.00
2018-11-22T22:19:05.436Z,2.00
2018-11-22T22:21:44.032Z,2.00
2018-11-22T22:24:12.781Z,2.00
2018-11-22T22:27:18.085Z,2.10
2018-11-22T22:29:53.335Z,2.10
2018-11-22T22:32:19.703Z,2.10
2018-11-22T22:34:48.550Z,2.10
2018-11-22T22:37:17.435Z,2.10
2018-11-22T22:39:49.793Z,2.10
2018-11-22T22:42:20.649Z,2.10
2018-11-22T22:48:09.232Z,2.10
2018-11-22T22:50:37.878Z,2.00
2018-11-22T22:53:32.910Z,2.00
2018-11-22T22:56:01.893Z,2.00
2018-11-22T22:58:30.934Z,2.00
2018-11-22T23:01:02.054Z,2.00
2018-11-22T23:03:32.707Z,2.00
2018-11-22T23:06:03.150Z,2.00
2018-11-22T23:08:49.689Z,2.00
2018-11-22T23:11:18.688Z,2.10
2018-11-22T23:13:50.001Z,2.10
2018-11-22T23:19:11.434Z,2.10
2018-11-22T23:21:29.906Z,2.20
2018-11-22T23:27:17.490Z,2.20
